sensor_id;sensor_type;location;lat;lon;timestamp;temperature;humidity
11736;DHT22;5924;51.398;7.088;2023-02-22T00:00:37;6.10;99.90
11736;DHT22;5924;51.398;7.088;2023-02-22T00:03:20;6.10;99.90
11736;DHT22;5924;51.398;7.088;2023-02-22T00:06:05;6.10;99.90
11736;DHT22;5924;51.398;7.088;2023-02-22T00:08:33;6.00;99.90
11736;DHT22;5924;51.398;7.088;2023-02-22T00:11:07;6.10;99.90
11736;DHT22;5924;51.398;7.088;2023-02-22T00:13:33;6.00;99.90
11736;DHT22;5924;51.398;7.088;2023-02-22T00:16:00;6.00;99.90
11736;DHT22;5924;51.398;7.088;2023-02-22T00:18:28;6.00;99.90
11736;DHT22;5924;51.398;7.088;2023-02-22T00:20:55;5.90;99.90
11736;DHT22;5924;51.398;7.088;2023-02-22T00:23:25;6.00;99.90
11736;DHT22;5924;51.398;7.088;2023-02-22T00:25:51;5.90;99.90
11736;DHT22;5924;51.398;7.088;2023-02-22T00:28:17;6.00;99.90
11736;DHT22;5924;51.398;7.088;2023-02-22T00:30:43;5.90;99.90
11736;DHT22;5924;51.398;7.088;2023-02-22T00:33:12;5.90;99.90
11736;DHT22;5924;51.398;7.088;2023-02-22T00:35:38;5.80;99.90
11736;DHT22;5924;51.398;7.088;2023-02-22T00:38:04;5.80;99.90
11736;DHT22;5924;51.398;7.088;2023-02-22T00:40:32;5.80;99.90
11736;DHT22;5924;51.398;7.088;2023-02-22T00:43:01;5.90;99.90
11736;DHT22;5924;51.398;7.088;2023-02-22T00:45:28;5.80;99.90
11736;DHT22;5924;51.398;7.088;2023-02-22T00:47:55;5.80;99.90
11736;DHT22;5924;51.398;7.088;2023-02-22T00:50:22;5.80;99.90
11736;DHT22;5924;51.398;7.088;2023-02-22T00:52:48;5.80;99.90
11736;DHT22;5924;51.398;7.088;2023-02-22T00:55:17;5.80;99.90
11736;DHT22;5924;51.398;7.088;2023-02-22T00:57:42;5.80;99.90
11736;DHT22;5924;51.398;7.088;2023-02-22T01:00:19;5.80;99.90
11736;DHT22;5924;51.398;7.088;2023-02-22T01:02:46;5.80;99.90
11736;DHT22;5924;51.398;7.088;2023-02-22T01:05:15;5.80;99.90
11736;DHT22;5924;51.398;7.088;2023-02-22T01:07:41;5.70;99.90
11736;DHT22;5924;51.398;7.088;2023-02-22T01:10:08;5.70;99.90
11736;DHT22;5924;51.398;7.088;2023-02-22T01:12:34;7.30;99.90
11736;DHT22;5924;51.398;7.088;2023-02-22T01:15:01;5.60;99.90
11736;DHT22;5924;51.398;7.088;2023-02-22T01:17:28;5.60;99.90
11736;DHT22;5924;51.398;7.088;2023-02-22T01:19:54;4.20;99.90
11736;DHT22;5924;51.398;7.088;2023-02-22T01:22:20;5.50;99.90
11736;DHT22;5924;51.398;7.088;2023-02-22T01:24:50;5.40;99.90
11736;DHT22;5924;51.398;7.088;2023-02-22T01:27:16;5.50;99.90
11736;DHT22;5924;51.398;7.088;2023-02-22T01:29:43;5.40;99.90
11736;DHT22;5924;51.398;7.088;2023-02-22T01:32:09;5.40;99.90
11736;DHT22;5924;51.398;7.088;2023-02-22T01:34:37;5.30;99.90
11736;DHT22;5924;51.398;7.088;2023-02-22T01:37:03;5.30;99.90
11736;DHT22;5924;51.398;7.088;2023-02-22T01:39:30;8.30;99.90
11736;DHT22;5924;51.398;7.088;2023-02-22T01:41:56;5.30;99.90
11736;DHT22;5924;51.398;7.088;2023-02-22T01:44:32;5.30;99.90
11736;DHT22;5924;51.398;7.088;2023-02-22T01:46:59;5.20;99.90
11736;DHT22;5924;51.398;7.088;2023-02-22T01:49:31;7.10;99.90
11736;DHT22;5924;51.398;7.088;2023-02-22T01:52:01;5.20;99.90
11736;DHT22;5924;51.398;7.088;2023-02-22T01:54:35;3.10;99.90
11736;DHT22;5924;51.398;7.088;2023-02-22T01:57:28;5.20;99.90
11736;DHT22;5924;51.398;7.088;2023-02-22T01:59:58;5.20;99.90
11736;DHT22;5924;51.398;7.088;2023-02-22T02:02:25;6.70;99.90
11736;DHT22;5924;51.398;7.088;2023-02-22T02:04:56;5.10;99.90
11736;DHT22;5924;51.398;7.088;2023-02-22T02:07:22;5.10;99.90
11736;DHT22;5924;51.398;7.088;2023-02-22T02:10:21;5.10;99.90
11736;DHT22;5924;51.398;7.088;2023-02-22T02:12:49;5.10;99.90
11736;DHT22;5924;51.398;7.088;2023-02-22T02:15:31;5.10;99.90
11736;DHT22;5924;51.398;7.088;2023-02-22T02:18:00;5.10;99.90
11736;DHT22;5924;51.398;7.088;2023-02-22T02:20:36;5.10;99.90
11736;DHT22;5924;51.398;7.088;2023-02-22T02:37:13;5.10;99.90
11736;DHT22;5924;51.398;7.088;2023-02-22T02:39:54;5.10;99.90
11736;DHT22;5924;51.398;7.088;2023-02-22T02:42:24;5.10;99.90
11736;DHT22;5924;51.398;7.088;2023-02-22T02:45:01;5.10;99.90
11736;DHT22;5924;51.398;7.088;2023-02-22T02:47:34;5.10;99.90
11736;DHT22;5924;51.398;7.088;2023-02-22T02:52:33;5.10;99.90
11736;DHT22;5924;51.398;7.088;2023-02-22T02:55:00;5.10;99.90
11736;DHT22;5924;51.398;7.088;2023-02-22T02:57:27;5.00;99.90
11736;DHT22;5924;51.398;7.088;2023-02-22T02:59:53;5.00;99.90
11736;DHT22;5924;51.398;7.088;2023-02-22T03:12:51;4.60;99.90
11736;DHT22;5924;51.398;7.088;2023-02-22T03:15:58;4.70;99.90
11736;DHT22;5924;51.398;7.088;2023-02-22T03:18:49;4.60;99.90
11736;DHT22;5924;51.398;7.088;2023-02-22T03:26:45;4.60;99.90
11736;DHT22;5924;51.398;7.088;2023-02-22T03:29:13;4.50;99.90
11736;DHT22;5924;51.398;7.088;2023-02-22T03:31:47;4.50;99.90
11736;DHT22;5924;51.398;7.088;2023-02-22T03:34:20;4.40;99.90
11736;DHT22;5924;51.398;7.088;2023-02-22T03:37:06;4.30;99.90
11736;DHT22;5924;51.398;7.088;2023-02-22T03:39:35;4.20;99.90
11736;DHT22;5924;51.398;7.088;2023-02-22T03:42:14;4.10;99.90
11736;DHT22;5924;51.398;7.088;2023-02-22T03:44:42;4.10;99.90
11736;DHT22;5924;51.398;7.088;2023-02-22T03:47:15;4.00;99.90
11736;DHT22;5924;51.398;7.088;2023-02-22T03:49:52;3.90;99.90
11736;DHT22;5924;51.398;7.088;2023-02-22T03:52:20;4.00;99.90
11736;DHT22;5924;51.398;7.088;2023-02-22T03:54:49;3.90;99.90
11736;DHT22;5924;51.398;7.088;2023-02-22T03:57:32;3.90;99.90
11736;DHT22;5924;51.398;7.088;2023-02-22T03:59:59;3.80;99.90
11736;DHT22;5924;51.398;7.088;2023-02-22T04:02:25;3.80;99.90
11736;DHT22;5924;51.398;7.088;2023-02-22T04:04:51;3.70;99.90
11736;DHT22;5924;51.398;7.088;2023-02-22T04:07:17;3.70;99.90
11736;DHT22;5924;51.398;7.088;2023-02-22T04:09:43;3.70;99.90
11736;DHT22;5924;51.398;7.088;2023-02-22T04:12:08;3.70;99.90
11736;DHT22;5924;51.398;7.088;2023-02-22T04:14:34;3.70;99.90
11736;DHT22;5924;51.398;7.088;2023-02-22T04:17:00;3.70;99.90
11736;DHT22;5924;51.398;7.088;2023-02-22T04:19:25;3.70;99.90
11736;DHT22;5924;51.398;7.088;2023-02-22T04:21:51;3.70;99.90
11736;DHT22;5924;51.398;7.088;2023-02-22T04:24:17;3.70;99.90
11736;DHT22;5924;51.398;7.088;2023-02-22T04:26:42;3.70;99.90
11736;DHT22;5924;51.398;7.088;2023-02-22T04:29:08;3.70;99.90
11736;DHT22;5924;51.398;7.088;2023-02-22T04:31:34;3.70;99.90
11736;DHT22;5924;51.398;7.088;2023-02-22T04:34:00;3.70;99.90
11736;DHT22;5924;51.398;7.088;2023-02-22T04:36:27;3.80;99.90
11736;DHT22;5924;51.398;7.088;2023-02-22T04:38:56;3.80;99.90
11736;DHT22;5924;51.398;7.088;2023-02-22T04:41:22;3.70;99.90
11736;DHT22;5924;51.398;7.088;2023-02-22T04:43:47;3.80;99.90
11736;DHT22;5924;51.398;7.088;2023-02-22T04:46:13;3.80;99.90
11736;DHT22;5924;51.398;7.088;2023-02-22T04:48:39;3.80;99.90
11736;DHT22;5924;51.398;7.088;2023-02-22T04:51:05;3.70;99.90
11736;DHT22;5924;51.398;7.088;2023-02-22T04:53:31;3.70;99.90
11736;DHT22;5924;51.398;7.088;2023-02-22T04:55:56;3.70;99.90
11736;DHT22;5924;51.398;7.088;2023-02-22T04:58:22;3.60;99.90
11736;DHT22;5924;51.398;7.088;2023-02-22T05:00:48;3.60;99.90
11736;DHT22;5924;51.398;7.088;2023-02-22T05:03:13;3.50;99.90
11736;DHT22;5924;51.398;7.088;2023-02-22T05:05:39;3.50;99.90
11736;DHT22;5924;51.398;7.088;2023-02-22T05:08:05;3.60;99.90
11736;DHT22;5924;51.398;7.088;2023-02-22T05:10:31;3.50;99.90
11736;DHT22;5924;51.398;7.088;2023-02-22T05:12:56;3.50;99.90
11736;DHT22;5924;51.398;7.088;2023-02-22T05:15:22;3.40;99.90
11736;DHT22;5924;51.398;7.088;2023-02-22T05:17:50;3.40;99.90
11736;DHT22;5924;51.398;7.088;2023-02-22T05:22:46;3.40;99.90
11736;DHT22;5924;51.398;7.088;2023-02-22T05:25:11;3.50;99.90
11736;DHT22;5924;51.398;7.088;2023-02-22T05:27:37;3.50;99.90
11736;DHT22;5924;51.398;7.088;2023-02-22T05:30:03;3.50;99.90
11736;DHT22;5924;51.398;7.088;2023-02-22T05:32:29;3.40;99.90
11736;DHT22;5924;51.398;7.088;2023-02-22T05:34:55;3.40;99.90
11736;DHT22;5924;51.398;7.088;2023-02-22T05:37:20;3.40;99.90
11736;DHT22;5924;51.398;7.088;2023-02-22T05:39:46;3.50;99.90
11736;DHT22;5924;51.398;7.088;2023-02-22T05:42:12;3.30;99.90
11736;DHT22;5924;51.398;7.088;2023-02-22T05:44:37;3.20;99.90
11736;DHT22;5924;51.398;7.088;2023-02-22T05:47:03;3.20;99.90
11736;DHT22;5924;51.398;7.088;2023-02-22T05:49:28;3.10;99.90
11736;DHT22;5924;51.398;7.088;2023-02-22T05:51:54;3.00;99.90
11736;DHT22;5924;51.398;7.088;2023-02-22T05:54:24;3.00;99.90
11736;DHT22;5924;51.398;7.088;2023-02-22T05:56:49;2.80;99.90
11736;DHT22;5924;51.398;7.088;2023-02-22T05:59:15;2.80;99.90
11736;DHT22;5924;51.398;7.088;2023-02-22T06:01:41;2.70;99.90
11736;DHT22;5924;51.398;7.088;2023-02-22T06:04:06;2.60;99.90
11736;DHT22;5924;51.398;7.088;2023-02-22T06:06:33;4.60;99.90
11736;DHT22;5924;51.398;7.088;2023-02-22T06:08:59;2.50;99.90
11736;DHT22;5924;51.398;7.088;2023-02-22T06:11:25;2.40;99.90
11736;DHT22;5924;51.398;7.088;2023-02-22T06:13:51;2.40;99.90
11736;DHT22;5924;51.398;7.088;2023-02-22T06:16:21;2.30;99.90
11736;DHT22;5924;51.398;7.088;2023-02-22T06:18:47;2.30;99.90
11736;DHT22;5924;51.398;7.088;2023-02-22T06:21:13;2.30;99.90
11736;DHT22;5924;51.398;7.088;2023-02-22T06:23:38;2.30;99.90
11736;DHT22;5924;51.398;7.088;2023-02-22T06:26:04;2.30;99.90
11736;DHT22;5924;51.398;7.088;2023-02-22T06:28:30;2.30;99.90
11736;DHT22;5924;51.398;7.088;2023-02-22T06:30:55;2.30;99.90
11736;DHT22;5924;51.398;7.088;2023-02-22T06:33:21;2.50;99.90
11736;DHT22;5924;51.398;7.088;2023-02-22T06:35:47;2.40;99.90
11736;DHT22;5924;51.398;7.088;2023-02-22T06:38:20;2.30;99.90
11736;DHT22;5924;51.398;7.088;2023-02-22T06:40:46;2.30;99.90
11736;DHT22;5924;51.398;7.088;2023-02-22T06:43:12;2.30;99.90
11736;DHT22;5924;51.398;7.088;2023-02-22T06:45:37;2.30;99.90
11736;DHT22;5924;51.398;7.088;2023-02-22T06:48:03;2.20;99.90
11736;DHT22;5924;51.398;7.088;2023-02-22T06:50:29;2.20;99.90
11736;DHT22;5924;51.398;7.088;2023-02-22T06:52:56;2.20;99.90
11736;DHT22;5924;51.398;7.088;2023-02-22T06:55:30;2.20;99.90
11736;DHT22;5924;51.398;7.088;2023-02-22T06:57:56;2.20;99.90
11736;DHT22;5924;51.398;7.088;2023-02-22T07:00:23;2.10;99.90
11736;DHT22;5924;51.398;7.088;2023-02-22T07:02:50;2.20;99.90
11736;DHT22;5924;51.398;7.088;2023-02-22T07:05:18;2.10;99.90
11736;DHT22;5924;51.398;7.088;2023-02-22T07:07:45;2.20;99.90
11736;DHT22;5924;51.398;7.088;2023-02-22T07:10:25;2.20;99.90
11736;DHT22;5924;51.398;7.088;2023-02-22T07:12:52;2.20;99.90
11736;DHT22;5924;51.398;7.088;2023-02-22T07:15:20;2.20;99.90
11736;DHT22;5924;51.398;7.088;2023-02-22T07:17:47;2.30;99.90
11736;DHT22;5924;51.398;7.088;2023-02-22T07:20:12;2.30;99.90
11736;DHT22;5924;51.398;7.088;2023-02-22T07:22:38;2.30;99.90
11736;DHT22;5924;51.398;7.088;2023-02-22T07:25:06;2.40;99.90
11736;DHT22;5924;51.398;7.088;2023-02-22T07:27:35;2.40;99.90
11736;DHT22;5924;51.398;7.088;2023-02-22T07:30:01;2.50;99.90
11736;DHT22;5924;51.398;7.088;2023-02-22T07:32:27;2.60;99.90
11736;DHT22;5924;51.398;7.088;2023-02-22T07:34:52;2.60;99.90
11736;DHT22;5924;51.398;7.088;2023-02-22T07:37:18;2.70;99.90
11736;DHT22;5924;51.398;7.088;2023-02-22T07:39:45;2.70;99.90
11736;DHT22;5924;51.398;7.088;2023-02-22T07:42:11;2.80;99.90
11736;DHT22;5924;51.398;7.088;2023-02-22T07:44:36;2.80;99.90
11736;DHT22;5924;51.398;7.088;2023-02-22T07:47:02;2.90;99.90
11736;DHT22;5924;51.398;7.088;2023-02-22T07:49:28;4.90;99.90
11736;DHT22;5924;51.398;7.088;2023-02-22T07:51:53;3.10;99.90
11736;DHT22;5924;51.398;7.088;2023-02-22T07:54:19;5.30;99.90
11736;DHT22;5924;51.398;7.088;2023-02-22T07:56:46;3.20;99.90
11736;DHT22;5924;51.398;7.088;2023-02-22T07:59:12;3.30;99.90
11736;DHT22;5924;51.398;7.088;2023-02-22T08:01:38;3.30;99.90
11736;DHT22;5924;51.398;7.088;2023-02-22T08:04:04;3.40;99.90
11736;DHT22;5924;51.398;7.088;2023-02-22T08:06:29;3.40;99.90
11736;DHT22;5924;51.398;7.088;2023-02-22T08:08:56;3.50;99.90
11736;DHT22;5924;51.398;7.088;2023-02-22T08:11:23;3.70;99.90
11736;DHT22;5924;51.398;7.088;2023-02-22T08:13:49;3.70;99.90
11736;DHT22;5924;51.398;7.088;2023-02-22T08:16:15;4.10;99.90
11736;DHT22;5924;51.398;7.088;2023-02-22T08:18:41;3.90;99.90
11736;DHT22;5924;51.398;7.088;2023-02-22T08:21:06;4.00;99.90
11736;DHT22;5924;51.398;7.088;2023-02-22T08:23:33;4.20;99.90
11736;DHT22;5924;51.398;7.088;2023-02-22T08:26:09;4.30;99.90
11736;DHT22;5924;51.398;7.088;2023-02-22T08:28:35;4.40;99.90
11736;DHT22;5924;51.398;7.088;2023-02-22T08:31:00;4.50;99.90
11736;DHT22;5924;51.398;7.088;2023-02-22T08:33:26;4.50;99.90
11736;DHT22;5924;51.398;7.088;2023-02-22T08:35:52;4.60;99.90
11736;DHT22;5924;51.398;7.088;2023-02-22T08:38:21;4.80;99.90
11736;DHT22;5924;51.398;7.088;2023-02-22T08:40:47;4.90;99.90
11736;DHT22;5924;51.398;7.088;2023-02-22T08:43:14;5.00;99.90
11736;DHT22;5924;51.398;7.088;2023-02-22T08:45:40;5.20;99.90
11736;DHT22;5924;51.398;7.088;2023-02-22T08:48:05;5.50;99.90
11736;DHT22;5924;51.398;7.088;2023-02-22T08:50:32;5.50;99.90
11736;DHT22;5924;51.398;7.088;2023-02-22T08:53:02;5.60;99.90
11736;DHT22;5924;51.398;7.088;2023-02-22T08:55:31;5.70;99.90
11736;DHT22;5924;51.398;7.088;2023-02-22T08:57:57;5.90;99.90
11736;DHT22;5924;51.398;7.088;2023-02-22T09:00:24;5.90;99.90
11736;DHT22;5924;51.398;7.088;2023-02-22T09:02:54;6.10;99.90
11736;DHT22;5924;51.398;7.088;2023-02-22T09:05:20;6.20;99.90
11736;DHT22;5924;51.398;7.088;2023-02-22T09:07:45;6.20;99.90
11736;DHT22;5924;51.398;7.088;2023-02-22T09:10:16;6.30;99.90
11736;DHT22;5924;51.398;7.088;2023-02-22T09:12:42;6.40;99.90
11736;DHT22;5924;51.398;7.088;2023-02-22T09:15:09;6.40;99.90
11736;DHT22;5924;51.398;7.088;2023-02-22T09:17:34;6.50;99.90
11736;DHT22;5924;51.398;7.088;2023-02-22T09:20:06;6.60;99.90
11736;DHT22;5924;51.398;7.088;2023-02-22T09:22:32;6.70;99.90
11736;DHT22;5924;51.398;7.088;2023-02-22T09:24:58;6.80;99.90
11736;DHT22;5924;51.398;7.088;2023-02-22T09:27:23;6.90;99.90
11736;DHT22;5924;51.398;7.088;2023-02-22T09:29:53;7.00;99.90
11736;DHT22;5924;51.398;7.088;2023-02-22T09:32:18;7.10;99.90
11736;DHT22;5924;51.398;7.088;2023-02-22T09:34:45;7.20;99.90
11736;DHT22;5924;51.398;7.088;2023-02-22T09:37:12;9.40;99.90
11736;DHT22;5924;51.398;7.088;2023-02-22T09:39:37;7.50;99.90
11736;DHT22;5924;51.398;7.088;2023-02-22T09:42:34;7.70;99.90
11736;DHT22;5924;51.398;7.088;2023-02-22T09:45:09;7.80;99.90
11736;DHT22;5924;51.398;7.088;2023-02-22T09:47:46;8.00;99.90
11736;DHT22;5924;51.398;7.088;2023-02-22T09:50:16;8.20;99.90
11736;DHT22;5924;51.398;7.088;2023-02-22T09:55:32;8.50;99.90
11736;DHT22;5924;51.398;7.088;2023-02-22T09:58:02;8.70;99.90
11736;DHT22;5924;51.398;7.088;2023-02-22T10:00:35;8.90;99.90
11736;DHT22;5924;51.398;7.088;2023-02-22T10:06:10;9.30;99.90
11736;DHT22;5924;51.398;7.088;2023-02-22T10:08:38;9.50;99.90
11736;DHT22;5924;51.398;7.088;2023-02-22T10:17:51;9.90;99.90
11736;DHT22;5924;51.398;7.088;2023-02-22T10:25:20;10.60;99.90
11736;DHT22;5924;51.398;7.088;2023-02-22T10:30:19;10.90;99.90
11736;DHT22;5924;51.398;7.088;2023-02-22T10:32:49;11.10;99.90
11736;DHT22;5924;51.398;7.088;2023-02-22T10:35:27;11.20;99.90
11736;DHT22;5924;51.398;7.088;2023-02-22T10:38:01;11.40;99.90
11736;DHT22;5924;51.398;7.088;2023-02-22T10:40:29;11.50;99.90
11736;DHT22;5924;51.398;7.088;2023-02-22T10:43:05;11.70;99.90
11736;DHT22;5924;51.398;7.088;2023-02-22T10:45:34;11.80;99.90
11736;DHT22;5924;51.398;7.088;2023-02-22T10:48:08;11.90;99.90
11736;DHT22;5924;51.398;7.088;2023-02-22T10:50:38;12.10;99.90
11736;DHT22;5924;51.398;7.088;2023-02-22T10:53:06;12.30;99.90
11736;DHT22;5924;51.398;7.088;2023-02-22T10:55:31;12.50;99.90
11736;DHT22;5924;51.398;7.088;2023-02-22T10:58:15;12.70;99.90
11736;DHT22;5924;51.398;7.088;2023-02-22T11:00:41;12.90;99.90
11736;DHT22;5924;51.398;7.088;2023-02-22T11:03:27;13.00;99.90
11736;DHT22;5924;51.398;7.088;2023-02-22T11:05:52;13.20;99.90
11736;DHT22;5924;51.398;7.088;2023-02-22T11:10:52;13.60;99.90
11736;DHT22;5924;51.398;7.088;2023-02-22T11:13:29;13.90;99.90
11736;DHT22;5924;51.398;7.088;2023-02-22T11:16:15;14.10;99.90
11736;DHT22;5924;51.398;7.088;2023-02-22T11:18:41;14.30;99.90
11736;DHT22;5924;51.398;7.088;2023-02-22T11:21:09;14.50;99.90
11736;DHT22;5924;51.398;7.088;2023-02-22T11:23:41;14.70;99.90
11736;DHT22;5924;51.398;7.088;2023-02-22T11:28:35;14.90;99.90
11736;DHT22;5924;51.398;7.088;2023-02-22T11:33:35;14.90;99.90
11736;DHT22;5924;51.398;7.088;2023-02-22T11:36:03;15.00;99.90
11736;DHT22;5924;51.398;7.088;2023-02-22T11:38:37;15.10;99.90
11736;DHT22;5924;51.398;7.088;2023-02-22T11:43:46;15.20;99.90
11736;DHT22;5924;51.398;7.088;2023-02-22T11:46:20;15.30;99.90
11736;DHT22;5924;51.398;7.088;2023-02-22T11:49:01;15.40;99.90
11736;DHT22;5924;51.398;7.088;2023-02-22T11:54:03;15.30;99.90
11736;DHT22;5924;51.398;7.088;2023-02-22T11:56:41;15.40;99.90
11736;DHT22;5924;51.398;7.088;2023-02-22T11:59:14;15.60;99.90
11736;DHT22;5924;51.398;7.088;2023-02-22T12:02:00;15.50;99.90
11736;DHT22;5924;51.398;7.088;2023-02-22T12:16:00;15.90;99.90
11736;DHT22;5924;51.398;7.088;2023-02-22T12:21:19;16.10;99.90
11736;DHT22;5924;51.398;7.088;2023-02-22T12:24:00;16.20;99.90
11736;DHT22;5924;51.398;7.088;2023-02-22T12:26:36;16.30;99.90
11736;DHT22;5924;51.398;7.088;2023-02-22T12:32:42;16.30;99.90
11736;DHT22;5924;51.398;7.088;2023-02-22T12:45:33;16.60;99.90
11736;DHT22;5924;51.398;7.088;2023-02-22T12:48:25;16.80;99.90
11736;DHT22;5924;51.398;7.088;2023-02-22T12:50:59;16.90;99.90
11736;DHT22;5924;51.398;7.088;2023-02-22T12:53:30;17.00;99.90
11736;DHT22;5924;51.398;7.088;2023-02-22T12:58:35;17.40;99.90
11736;DHT22;5924;51.398;7.088;2023-02-22T13:01:05;17.80;99.90
11736;DHT22;5924;51.398;7.088;2023-02-22T13:03:41;17.90;99.90
11736;DHT22;5924;51.398;7.088;2023-02-22T13:16:52;18.90;99.90
11736;DHT22;5924;51.398;7.088;2023-02-22T13:27:19;18.40;99.90
11736;DHT22;5924;51.398;7.088;2023-02-22T13:29:49;18.40;99.90
11736;DHT22;5924;51.398;7.088;2023-02-22T13:41:24;17.80;99.90
11736;DHT22;5924;51.398;7.088;2023-02-22T13:44:17;17.70;99.90
11736;DHT22;5924;51.398;7.088;2023-02-22T13:52:23;17.20;99.90
11736;DHT22;5924;51.398;7.088;2023-02-22T13:54:53;17.20;99.90
11736;DHT22;5924;51.398;7.088;2023-02-22T13:57:40;17.10;99.90
11736;DHT22;5924;51.398;7.088;2023-02-22T14:10:51;16.60;99.90
11736;DHT22;5924;51.398;7.088;2023-02-22T14:13:21;16.50;99.90
11736;DHT22;5924;51.398;7.088;2023-02-22T14:18:41;16.40;99.90
11736;DHT22;5924;51.398;7.088;2023-02-22T14:21:13;16.20;99.90
11736;DHT22;5924;51.398;7.088;2023-02-22T14:23:50;16.10;99.90
11736;DHT22;5924;51.398;7.088;2023-02-22T14:26:18;16.10;99.90
11736;DHT22;5924;51.398;7.088;2023-02-22T14:34:52;16.30;99.90
11736;DHT22;5924;51.398;7.088;2023-02-22T14:37:37;16.50;99.90
11736;DHT22;5924;51.398;7.088;2023-02-22T14:43:02;16.40;99.90
11736;DHT22;5924;51.398;7.088;2023-02-22T14:45:31;16.20;99.90
11736;DHT22;5924;51.398;7.088;2023-02-22T14:48:04;16.10;99.90
11736;DHT22;5924;51.398;7.088;2023-02-22T14:53:40;16.10;99.90
11736;DHT22;5924;51.398;7.088;2023-02-22T14:56:31;16.00;99.90
11736;DHT22;5924;51.398;7.088;2023-02-22T15:01:30;15.70;99.90
11736;DHT22;5924;51.398;7.088;2023-02-22T15:06:40;15.50;99.90
11736;DHT22;5924;51.398;7.088;2023-02-22T15:09:16;15.30;99.90
11736;DHT22;5924;51.398;7.088;2023-02-22T15:12:13;15.20;99.90
11736;DHT22;5924;51.398;7.088;2023-02-22T15:14:42;15.10;99.90
11736;DHT22;5924;51.398;7.088;2023-02-22T15:17:22;15.00;99.90
11736;DHT22;5924;51.398;7.088;2023-02-22T15:19:52;14.90;99.90
11736;DHT22;5924;51.398;7.088;2023-02-22T15:22:26;14.80;99.90
11736;DHT22;5924;51.398;7.088;2023-02-22T15:25:03;14.80;99.90
11736;DHT22;5924;51.398;7.088;2023-02-22T15:27:29;14.80;99.90
11736;DHT22;5924;51.398;7.088;2023-02-22T15:30:13;14.90;99.90
11736;DHT22;5924;51.398;7.088;2023-02-22T15:32:41;14.90;99.90
11736;DHT22;5924;51.398;7.088;2023-02-22T15:35:12;14.90;99.90
11736;DHT22;5924;51.398;7.088;2023-02-22T15:37:39;14.90;99.90
11736;DHT22;5924;51.398;7.088;2023-02-22T15:40:16;15.00;99.90
11736;DHT22;5924;51.398;7.088;2023-02-22T15:42:49;14.90;99.90
11736;DHT22;5924;51.398;7.088;2023-02-22T15:45:20;14.90;99.90
11736;DHT22;5924;51.398;7.088;2023-02-22T15:47:47;14.80;99.90
11736;DHT22;5924;51.398;7.088;2023-02-22T15:50:24;14.70;99.90
11736;DHT22;5924;51.398;7.088;2023-02-22T15:53:04;14.50;99.90
11736;DHT22;5924;51.398;7.088;2023-02-22T15:55:39;14.30;99.90
11736;DHT22;5924;51.398;7.088;2023-02-22T15:58:26;14.20;99.90
11736;DHT22;5924;51.398;7.088;2023-02-22T16:01:07;14.00;99.90
11736;DHT22;5924;51.398;7.088;2023-02-22T16:03:49;13.90;99.90
11736;DHT22;5924;51.398;7.088;2023-02-22T16:06:37;13.70;99.90
11736;DHT22;5924;51.398;7.088;2023-02-22T16:09:13;13.60;99.90
11736;DHT22;5924;51.398;7.088;2023-02-22T16:11:44;13.40;99.90
11736;DHT22;5924;51.398;7.088;2023-02-22T16:14:30;13.30;99.90
11736;DHT22;5924;51.398;7.088;2023-02-22T16:17:36;13.20;99.90
11736;DHT22;5924;51.398;7.088;2023-02-22T16:22:41;13.10;99.90
11736;DHT22;5924;51.398;7.088;2023-02-22T16:27:51;12.90;99.90
11736;DHT22;5924;51.398;7.088;2023-02-22T16:32:44;12.70;99.90
11736;DHT22;5924;51.398;7.088;2023-02-22T16:35:10;12.60;99.90
11736;DHT22;5924;51.398;7.088;2023-02-22T16:37:49;12.50;99.90
11736;DHT22;5924;51.398;7.088;2023-02-22T16:40:24;12.40;99.90
11736;DHT22;5924;51.398;7.088;2023-02-22T16:42:50;12.30;99.90
11736;DHT22;5924;51.398;7.088;2023-02-22T16:45:18;12.20;99.90
11736;DHT22;5924;51.398;7.088;2023-02-22T16:47:44;12.10;99.90
11736;DHT22;5924;51.398;7.088;2023-02-22T16:50:10;12.10;99.90
11736;DHT22;5924;51.398;7.088;2023-02-22T16:52:38;12.00;99.90
11736;DHT22;5924;51.398;7.088;2023-02-22T16:55:09;11.90;99.90
11736;DHT22;5924;51.398;7.088;2023-02-22T16:57:37;11.90;99.90
11736;DHT22;5924;51.398;7.088;2023-02-22T17:00:05;11.80;99.90
11736;DHT22;5924;51.398;7.088;2023-02-22T17:02:34;11.70;99.90
11736;DHT22;5924;51.398;7.088;2023-02-22T17:04:59;11.60;99.90
11736;DHT22;5924;51.398;7.088;2023-02-22T17:07:25;11.60;99.90
11736;DHT22;5924;51.398;7.088;2023-02-22T17:09:55;11.60;99.90
11736;DHT22;5924;51.398;7.088;2023-02-22T17:12:23;11.50;99.90
11736;DHT22;5924;51.398;7.088;2023-02-22T17:14:49;11.50;99.90
11736;DHT22;5924;51.398;7.088;2023-02-22T17:17:15;11.40;99.90
11736;DHT22;5924;51.398;7.088;2023-02-22T17:19:41;11.40;99.90
11736;DHT22;5924;51.398;7.088;2023-02-22T17:22:19;11.30;99.90
11736;DHT22;5924;51.398;7.088;2023-02-22T17:24:45;11.20;99.90
11736;DHT22;5924;51.398;7.088;2023-02-22T17:27:11;11.10;99.90
11736;DHT22;5924;51.398;7.088;2023-02-22T17:29:37;11.00;99.90
11736;DHT22;5924;51.398;7.088;2023-02-22T17:32:03;10.90;99.90
11736;DHT22;5924;51.398;7.088;2023-02-22T17:34:29;10.90;99.90
11736;DHT22;5924;51.398;7.088;2023-02-22T17:36:56;10.80;99.90
11736;DHT22;5924;51.398;7.088;2023-02-22T17:39:22;10.90;99.90
11736;DHT22;5924;51.398;7.088;2023-02-22T17:41:47;10.80;99.90
11736;DHT22;5924;51.398;7.088;2023-02-22T17:44:19;10.80;99.90
11736;DHT22;5924;51.398;7.088;2023-02-22T17:46:45;10.80;99.90
11736;DHT22;5924;51.398;7.088;2023-02-22T17:49:10;10.70;99.90
11736;DHT22;5924;51.398;7.088;2023-02-22T17:51:38;10.70;99.90
11736;DHT22;5924;51.398;7.088;2023-02-22T17:54:04;10.70;99.90
11736;DHT22;5924;51.398;7.088;2023-02-22T17:56:30;10.60;99.90
11736;DHT22;5924;51.398;7.088;2023-02-22T17:58:55;10.60;99.90
11736;DHT22;5924;51.398;7.088;2023-02-22T18:01:30;10.60;99.90
11736;DHT22;5924;51.398;7.088;2023-02-22T18:03:58;10.50;99.90
11736;DHT22;5924;51.398;7.088;2023-02-22T18:06:26;10.50;99.90
11736;DHT22;5924;51.398;7.088;2023-02-22T18:08:54;10.50;99.90
11736;DHT22;5924;51.398;7.088;2023-02-22T18:11:20;10.50;99.90
11736;DHT22;5924;51.398;7.088;2023-02-22T18:13:59;10.40;99.90
11736;DHT22;5924;51.398;7.088;2023-02-22T18:16:25;10.40;99.90
11736;DHT22;5924;51.398;7.088;2023-02-22T18:18:51;10.30;99.90
11736;DHT22;5924;51.398;7.088;2023-02-22T18:21:17;10.30;99.90
11736;DHT22;5924;51.398;7.088;2023-02-22T18:23:42;10.40;99.90
11736;DHT22;5924;51.398;7.088;2023-02-22T18:26:16;10.30;99.90
11736;DHT22;5924;51.398;7.088;2023-02-22T18:28:43;10.40;99.90
11736;DHT22;5924;51.398;7.088;2023-02-22T18:31:12;10.50;99.90
11736;DHT22;5924;51.398;7.088;2023-02-22T18:33:39;10.50;99.90
11736;DHT22;5924;51.398;7.088;2023-02-22T18:36:05;10.50;99.90
11736;DHT22;5924;51.398;7.088;2023-02-22T18:38:31;10.50;99.90
11736;DHT22;5924;51.398;7.088;2023-02-22T18:41:02;10.50;99.90
11736;DHT22;5924;51.398;7.088;2023-02-22T18:43:29;10.50;99.90
11736;DHT22;5924;51.398;7.088;2023-02-22T18:46:15;10.50;99.90
11736;DHT22;5924;51.398;7.088;2023-02-22T18:48:47;10.40;99.90
11736;DHT22;5924;51.398;7.088;2023-02-22T18:51:16;10.40;99.90
11736;DHT22;5924;51.398;7.088;2023-02-22T18:53:42;10.30;99.90
11736;DHT22;5924;51.398;7.088;2023-02-22T18:56:14;10.30;99.90
11736;DHT22;5924;51.398;7.088;2023-02-22T18:58:41;10.30;99.90
11736;DHT22;5924;51.398;7.088;2023-02-22T19:01:12;10.20;99.90